sensor_id;sensor_type;location;lat;lon;timestamp;pressure;altitude;pressure_sealevel;temperature;humidity
47670;BME280;33408;52.062;11.722;2023-11-21T00:02:06;100533.06;;;7.87;100.00
47670;BME280;33408;52.062;11.722;2023-11-21T00:04:33;100531.34;;;7.88;100.00
47670;BME280;33408;52.062;11.722;2023-11-21T00:07:01;100528.88;;;7.77;100.00
47670;BME280;33408;52.062;11.722;2023-11-21T00:09:28;100533.97;;;7.83;100.00
47670;BME280;33408;52.062;11.722;2023-11-21T00:11:54;100532.25;;;7.83;100.00
47670;BME280;33408;52.062;11.722;2023-11-21T00:14:21;100538.19;;;7.90;100.00
47670;BME280;33408;52.062;11.722;2023-11-21T00:16:47;100531.34;;;7.88;100.00
47670;BME280;33408;52.062;11.722;2023-11-21T00:19:14;100530.41;;;7.95;100.00
47670;BME280;33408;52.062;11.722;2023-11-21T00:21:41;100528.66;;;7.97;100.00
47670;BME280;33408;52.062;11.722;2023-11-21T00:24:11;100532.16;;;7.94;100.00
47670;BME280;33408;52.062;11.722;2023-11-21T00:26:39;100538.06;;;8.04;100.00
47670;BME280;33408;52.062;11.722;2023-11-21T00:29:05;100535.50;;;8.02;100.00
47670;BME280;33408;52.062;11.722;2023-11-21T00:31:33;100540.72;;;7.95;100.00
47670;BME280;33408;52.062;11.722;2023-11-21T00:34:02;100545.03;;;7.97;100.00
47670;BME280;33408;52.062;11.722;2023-11-21T00:36:28;100546.72;;;7.98;100.00
47670;BME280;33408;52.062;11.722;2023-11-21T00:38:55;100545.00;;;8.00;100.00
47670;BME280;33408;52.062;11.722;2023-11-21T00:41:23;100548.44;;;7.98;100.00
47670;BME280;33408;52.062;11.722;2023-11-21T00:43:53;100550.19;;;7.97;100.00
47670;BME280;33408;52.062;11.722;2023-11-21T00:46:19;100550.19;;;7.96;100.00
47670;BME280;33408;52.062;11.722;2023-11-21T00:48:46;100544.22;;;7.92;100.00
47670;BME280;33408;52.062;11.722;2023-11-21T00:51:13;100547.59;;;7.97;100.00
47670;BME280;33408;52.062;11.722;2023-11-21T00:53:39;100547.59;;;7.97;100.00
47670;BME280;33408;52.062;11.722;2023-11-21T00:56:07;100547.59;;;7.97;100.00
47670;BME280;33408;52.062;11.722;2023-11-21T00:58:35;100547.66;;;7.93;100.00
47670;BME280;33408;52.062;11.722;2023-11-21T01:01:02;100554.44;;;8.00;100.00
47670;BME280;33408;52.062;11.722;2023-11-21T01:03:29;100555.44;;;7.87;100.00
47670;BME280;33408;52.062;11.722;2023-11-21T01:05:55;100559.75;;;7.86;100.00
47670;BME280;33408;52.062;11.722;2023-11-21T01:08:22;100557.16;;;7.88;100.00
47670;BME280;33408;52.062;11.722;2023-11-21T01:10:49;100564.03;;;7.87;100.00
47670;BME280;33408;52.062;11.722;2023-11-21T01:13:16;100564.91;;;7.86;100.00
47670;BME280;33408;52.062;11.722;2023-11-21T01:15:44;100567.53;;;7.81;100.00
47670;BME280;33408;52.062;11.722;2023-11-21T01:18:10;100569.19;;;7.87;100.00
47670;BME280;33408;52.062;11.722;2023-11-21T01:20:37;100567.53;;;7.81;100.00
47670;BME280;33408;52.062;11.722;2023-11-21T01:23:04;100573.56;;;7.79;100.00
47670;BME280;33408;52.062;11.722;2023-11-21T01:25:30;100584.81;;;7.75;100.00
47670;BME280;33408;52.062;11.722;2023-11-21T01:27:57;100577.91;;;7.75;100.00
47670;BME280;33408;52.062;11.722;2023-11-21T01:30:23;100583.94;;;7.73;100.00
47670;BME280;33408;52.062;11.722;2023-11-21T01:32:52;100588.25;;;7.74;100.00
47670;BME280;33408;52.062;11.722;2023-11-21T01:35:18;100580.50;;;7.74;100.00
47670;BME280;33408;52.062;11.722;2023-11-21T01:37:45;100590.00;;;7.70;100.00
47670;BME280;33408;52.062;11.722;2023-11-21T01:40:13;100587.38;;;7.76;100.00
47670;BME280;33408;52.062;11.722;2023-11-21T01:42:40;100586.59;;;7.68;100.00
47670;BME280;33408;52.062;11.722;2023-11-21T01:45:07;100591.69;;;7.73;100.00
47670;BME280;33408;52.062;11.722;2023-11-21T01:47:35;100587.41;;;7.75;100.00
47670;BME280;33408;52.062;11.722;2023-11-21T01:50:06;100579.63;;;7.78;100.00
47670;BME280;33408;52.062;11.722;2023-11-21T01:52:34;100590.75;;;7.83;100.00
47670;BME280;33408;52.062;11.722;2023-11-21T01:55:02;100588.16;;;7.86;100.00
47670;BME280;33408;52.062;11.722;2023-11-21T01:57:29;100595.13;;;7.75;100.00
47670;BME280;33408;52.062;11.722;2023-11-21T01:59:58;100588.22;;;7.77;100.00
47670;BME280;33408;52.062;11.722;2023-11-21T02:02:36;100592.44;;;7.84;100.00
47670;BME280;33408;52.062;11.722;2023-11-21T02:05:04;100577.91;;;7.78;100.00
47670;BME280;33408;52.062;11.722;2023-11-21T02:07:34;100595.97;;;7.75;100.00
47670;BME280;33408;52.062;11.722;2023-11-21T02:10:01;100590.81;;;7.75;100.00
47670;BME280;33408;52.062;11.722;2023-11-21T02:12:29;100587.34;;;7.82;100.00
47670;BME280;33408;52.062;11.722;2023-11-21T02:14:56;100590.75;;;7.84;100.00
47670;BME280;33408;52.062;11.722;2023-11-21T02:17:23;100586.47;;;7.82;100.00
47670;BME280;33408;52.062;11.722;2023-11-21T02:19:49;100592.53;;;7.78;100.00
47670;BME280;33408;52.062;11.722;2023-11-21T02:22:19;100593.41;;;7.74;100.00
47670;BME280;33408;52.062;11.722;2023-11-21T02:24:47;100592.56;;;7.73;100.00
47670;BME280;33408;52.062;11.722;2023-11-21T02:27:14;100589.09;;;7.74;100.00
47670;BME280;33408;52.062;11.722;2023-11-21T02:29:46;100592.56;;;7.73;100.00
47670;BME280;33408;52.062;11.722;2023-11-21T02:32:12;100588.22;;;7.78;100.00
47670;BME280;33408;52.062;11.722;2023-11-21T02:34:39;100592.59;;;7.72;100.00
47670;BME280;33408;52.062;11.722;2023-11-21T02:37:06;100591.75;;;7.71;100.00
47670;BME280;33408;52.062;11.722;2023-11-21T02:39:33;100597.75;;;7.72;100.00
47670;BME280;33408;52.062;11.722;2023-11-21T02:42:01;100599.44;;;7.73;100.00
47670;BME280;33408;52.062;11.722;2023-11-21T02:44:27;100598.66;;;7.64;100.00
47670;BME280;33408;52.062;11.722;2023-11-21T02:46:54;100600.31;;;7.72;100.00
47670;BME280;33408;52.062;11.722;2023-11-21T02:49:23;100600.34;;;7.67;100.00
47670;BME280;33408;52.062;11.722;2023-11-21T02:51:53;100608.94;;;7.67;100.00
47670;BME280;33408;52.062;11.722;2023-11-21T02:54:20;100602.97;;;7.62;100.00
47670;BME280;33408;52.062;11.722;2023-11-21T02:56:49;100604.72;;;7.60;100.00
47670;BME280;33408;52.062;11.722;2023-11-21T02:59:17;100604.75;;;7.57;100.00
47670;BME280;33408;52.062;11.722;2023-11-21T03:01:44;100609.91;;;7.56;100.00
47670;BME280;33408;52.062;11.722;2023-11-21T03:04:11;100612.50;;;7.54;100.00
47670;BME280;33408;52.062;11.722;2023-11-21T03:06:43;100603.91;;;7.55;100.00
47670;BME280;33408;52.062;11.722;2023-11-21T03:09:10;100612.47;;;7.57;100.00
47670;BME280;33408;52.062;11.722;2023-11-21T03:11:37;100620.22;;;7.59;100.00
47670;BME280;33408;52.062;11.722;2023-11-21T03:14:04;100613.31;;;7.58;100.00
47670;BME280;33408;52.062;11.722;2023-11-21T03:16:32;100620.22;;;7.56;100.00
47670;BME280;33408;52.062;11.722;2023-11-21T03:18:58;100623.59;;;7.64;100.00
47670;BME280;33408;52.062;11.722;2023-11-21T03:21:25;100622.81;;;7.57;100.00
47670;BME280;33408;52.062;11.722;2023-11-21T03:23:52;100624.56;;;7.52;100.00
47670;BME280;33408;52.062;11.722;2023-11-21T03:26:19;100621.94;;;7.57;100.00
47670;BME280;33408;52.062;11.722;2023-11-21T03:28:46;100621.94;;;7.58;100.00
47670;BME280;33408;52.062;11.722;2023-11-21T03:31:12;100626.16;;;7.67;100.00
47670;BME280;33408;52.062;11.722;2023-11-21T03:33:40;100634.78;;;7.61;100.00
47670;BME280;33408;52.062;11.722;2023-11-21T03:36:08;100637.38;;;7.60;100.00
47670;BME280;33408;52.062;11.722;2023-11-21T03:38:34;100637.34;;;7.64;100.00
47670;BME280;33408;52.062;11.722;2023-11-21T03:41:01;100640.81;;;7.63;100.00
47670;BME280;33408;52.062;11.722;2023-11-21T03:43:28;100639.06;;;7.64;100.00
47670;BME280;33408;52.062;11.722;2023-11-21T03:45:55;100651.13;;;7.65;100.00
47670;BME280;33408;52.062;11.722;2023-11-21T03:48:22;100645.97;;;7.62;100.00
47670;BME280;33408;52.062;11.722;2023-11-21T03:50:50;100645.81;;;7.82;100.00
47670;BME280;33408;52.062;11.722;2023-11-21T03:53:16;100657.16;;;7.61;100.00
47670;BME280;33408;52.062;11.722;2023-11-21T03:55:43;100665.78;;;7.58;100.00
47670;BME280;33408;52.062;11.722;2023-11-21T03:58:10;100666.63;;;7.63;100.00
47670;BME280;33408;52.062;11.722;2023-11-21T04:00:36;100669.16;;;7.70;100.00
47670;BME280;33408;52.062;11.722;2023-11-21T04:03:03;100677.69;;;7.78;100.00
47670;BME280;33408;52.062;11.722;2023-11-21T04:05:30;100678.53;;;7.77;100.00
47670;BME280;33408;52.062;11.722;2023-11-21T04:07:58;100684.53;;;7.79;100.00
47670;BME280;33408;52.062;11.722;2023-11-21T04:10:25;100689.69;;;7.79;100.00
47670;BME280;33408;52.062;11.722;2023-11-21T04:12:52;100695.47;;;8.12;100.00
47670;BME280;33408;52.062;11.722;2023-11-21T04:15:18;100694.03;;;7.75;100.00
47670;BME280;33408;52.062;11.722;2023-11-21T04:17:45;100701.81;;;7.71;100.00
47670;BME280;33408;52.062;11.722;2023-11-21T04:20:12;100705.34;;;7.59;100.00
47670;BME280;33408;52.062;11.722;2023-11-21T04:22:39;100711.41;;;7.48;100.00
47670;BME280;33408;52.062;11.722;2023-11-21T04:25:11;100706.34;;;7.35;100.00
47670;BME280;33408;52.062;11.722;2023-11-21T04:27:39;100713.25;;;7.31;100.00
47670;BME280;33408;52.062;11.722;2023-11-21T04:30:07;100714.97;;;7.26;100.00
47670;BME280;33408;52.062;11.722;2023-11-21T04:32:35;100717.56;;;7.23;100.00
47670;BME280;33408;52.062;11.722;2023-11-21T04:35:02;100721.88;;;7.24;100.00
47670;BME280;33408;52.062;11.722;2023-11-21T04:37:29;100728.78;;;7.16;100.00
47670;BME280;33408;52.062;11.722;2023-11-21T04:39:56;100720.22;;;7.10;100.00
47670;BME280;33408;52.062;11.722;2023-11-21T04:42:24;100728.81;;;7.09;100.00
47670;BME280;33408;52.062;11.722;2023-11-21T04:44:50;100722.78;;;7.09;100.00
47670;BME280;33408;52.062;11.722;2023-11-21T04:47:18;100735.72;;;7.03;100.00
47670;BME280;33408;52.062;11.722;2023-11-21T04:49:46;100739.19;;;6.91;100.00
47670;BME280;33408;52.062;11.722;2023-11-21T04:52:13;100736.63;;;6.88;100.00
47670;BME280;33408;52.062;11.722;2023-11-21T04:54:39;100736.63;;;6.88;100.00
47670;BME280;33408;52.062;11.722;2023-11-21T04:57:06;100739.22;;;6.85;100.00
47670;BME280;33408;52.062;11.722;2023-11-21T04:59:35;100737.47;;;6.87;100.00
47670;BME280;33408;52.062;11.722;2023-11-21T05:02:01;100741.78;;;6.83;100.00
47670;BME280;33408;52.062;11.722;2023-11-21T05:04:28;100746.06;;;6.86;100.00
47670;BME280;33408;52.062;11.722;2023-11-21T05:06:55;100746.94;;;6.89;100.00
47670;BME280;33408;52.062;11.722;2023-11-21T05:09:22;100742.63;;;6.88;100.00
47670;BME280;33408;52.062;11.722;2023-11-21T05:11:48;100752.94;;;6.91;100.00
47670;BME280;33408;52.062;11.722;2023-11-21T05:14:15;100763.25;;;6.88;100.00
47670;BME280;33408;52.062;11.722;2023-11-21T05:16:45;100759.81;;;6.94;100.00
47670;BME280;33408;52.062;11.722;2023-11-21T05:19:12;100766.66;;;6.92;100.00
47670;BME280;33408;52.062;11.722;2023-11-21T05:21:38;100765.81;;;6.88;100.00
47670;BME280;33408;52.062;11.722;2023-11-21T05:24:06;100770.97;;;6.88;100.00
47670;BME280;33408;52.062;11.722;2023-11-21T05:26:32;100767.53;;;6.88;100.00
47670;BME280;33408;52.062;11.722;2023-11-21T05:28:59;100768.41;;;6.88;100.00
47670;BME280;33408;52.062;11.722;2023-11-21T05:31:26;100779.56;;;6.87;100.00
47670;BME280;33408;52.062;11.722;2023-11-21T05:33:54;100783.00;;;6.89;100.00
47670;BME280;33408;52.062;11.722;2023-11-21T05:36:22;100783.84;;;6.90;100.00
47670;BME280;33408;52.062;11.722;2023-11-21T05:38:49;100787.31;;;6.84;100.00
47670;BME280;33408;52.062;11.722;2023-11-21T05:41:15;100792.44;;;6.89;100.00
47670;BME280;33408;52.062;11.722;2023-11-21T05:43:42;100787.31;;;6.83;100.00
47670;BME280;33408;52.062;11.722;2023-11-21T05:46:09;100797.59;;;6.86;100.00
47670;BME280;33408;52.062;11.722;2023-11-21T05:48:35;100798.47;;;6.80;100.00
47670;BME280;33408;52.062;11.722;2023-11-21T05:51:05;100805.34;;;6.83;100.00
47670;BME280;33408;52.062;11.722;2023-11-21T05:53:32;100807.94;;;6.80;100.00
47670;BME280;33408;52.062;11.722;2023-11-21T05:55:58;100811.38;;;6.77;100.00
47670;BME280;33408;52.062;11.722;2023-11-21T05:58:25;100823.41;;;6.63;100.00
47670;BME280;33408;52.062;11.722;2023-11-21T06:00:52;100820.81;;;6.66;100.00
47670;BME280;33408;52.062;11.722;2023-11-21T06:03:19;100830.28;;;6.70;100.00
47670;BME280;33408;52.062;11.722;2023-11-21T06:05:45;100833.69;;;6.67;100.00
47670;BME280;33408;52.062;11.722;2023-11-21T06:08:13;100837.16;;;6.60;100.00
47670;BME280;33408;52.062;11.722;2023-11-21T06:10:42;100841.44;;;6.55;100.00
47670;BME280;33408;52.062;11.722;2023-11-21T06:13:09;100842.31;;;6.51;100.00
47670;BME280;33408;52.062;11.722;2023-11-21T06:15:36;100850.88;;;6.36;100.00
47670;BME280;33408;52.062;11.722;2023-11-21T06:18:02;100846.59;;;6.39;100.00
47670;BME280;33408;52.062;11.722;2023-11-21T06:20:30;100862.03;;;6.35;100.00
47670;BME280;33408;52.062;11.722;2023-11-21T06:22:57;100866.31;;;6.28;100.00
47670;BME280;33408;52.062;11.722;2023-11-21T06:25:25;100865.44;;;6.29;100.00
47670;BME280;33408;52.062;11.722;2023-11-21T06:27:52;100869.72;;;6.23;100.00
47670;BME280;33408;52.062;11.722;2023-11-21T06:30:19;100869.72;;;6.24;100.00
47670;BME280;33408;52.062;11.722;2023-11-21T06:32:47;100874.88;;;6.21;100.00
47670;BME280;33408;52.062;11.722;2023-11-21T06:35:13;100876.59;;;6.22;100.00
47670;BME280;33408;52.062;11.722;2023-11-21T06:37:40;100876.59;;;6.14;100.00
47670;BME280;33408;52.062;11.722;2023-11-21T06:40:12;100884.31;;;6.14;100.00
47670;BME280;33408;52.062;11.722;2023-11-21T06:42:41;100886.88;;;6.17;100.00
47670;BME280;33408;52.062;11.722;2023-11-21T06:45:09;100897.19;;;6.16;100.00
47670;BME280;33408;52.062;11.722;2023-11-21T06:47:36;100895.47;;;6.18;100.00
47670;BME280;33408;52.062;11.722;2023-11-21T06:50:03;100897.19;;;6.17;100.00
47670;BME280;33408;52.062;11.722;2023-11-21T06:52:32;100892.88;;;6.16;100.00
47670;BME280;33408;52.062;11.722;2023-11-21T06:54:58;100901.47;;;6.15;100.00
47670;BME280;33408;52.062;11.722;2023-11-21T06:57:25;100899.75;;;6.13;100.00
47670;BME280;33408;52.062;11.722;2023-11-21T06:59:54;100902.34;;;6.17;100.00
47670;BME280;33408;52.062;11.722;2023-11-21T07:02:22;100903.19;;;6.24;100.00
47670;BME280;33408;52.062;11.722;2023-11-21T07:04:49;100910.03;;;6.11;100.00
47670;BME280;33408;52.062;11.722;2023-11-21T07:07:16;100909.19;;;6.12;100.00
47670;BME280;33408;52.062;11.722;2023-11-21T07:09:42;100915.22;;;6.24;100.00
47670;BME280;33408;52.062;11.722;2023-11-21T07:12:09;100913.47;;;6.16;100.00
47670;BME280;33408;52.062;11.722;2023-11-21T07:14:36;100925.50;;;6.17;100.00
47670;BME280;33408;52.062;11.722;2023-11-21T07:17:09;100927.22;;;6.25;100.00
47670;BME280;33408;52.062;11.722;2023-11-21T07:19:37;100920.38;;;6.30;100.00
47670;BME280;33408;52.062;11.722;2023-11-21T07:22:04;100928.94;;;6.29;100.00
47670;BME280;33408;52.062;11.722;2023-11-21T07:24:31;100929.78;;;6.26;100.00
47670;BME280;33408;52.062;11.722;2023-11-21T07:26:58;100934.09;;;6.27;100.00
47670;BME280;33408;52.062;11.722;2023-11-21T07:29:24;100936.69;;;6.27;100.00
47670;BME280;33408;52.062;11.722;2023-11-21T07:31:51;100929.78;;;6.26;100.00
47670;BME280;33408;52.062;11.722;2023-11-21T07:34:20;100940.13;;;6.32;100.00
47670;BME280;33408;52.062;11.722;2023-11-21T07:36:47;100942.69;;;6.31;100.00
47670;BME280;33408;52.062;11.722;2023-11-21T07:39:13;100948.72;;;6.34;100.00
47670;BME280;33408;52.062;11.722;2023-11-21T07:41:41;100952.13;;;6.30;100.00
47670;BME280;33408;52.062;11.722;2023-11-21T07:44:14;100950.41;;;6.31;100.00
47670;BME280;33408;52.062;11.722;2023-11-21T07:46:42;100956.44;;;6.37;100.00
47670;BME280;33408;52.062;11.722;2023-11-21T07:49:09;100963.31;;;6.40;100.00
47670;BME280;33408;52.062;11.722;2023-11-21T07:51:37;100962.44;;;6.36;100.00
47670;BME280;33408;52.062;11.722;2023-11-21T07:54:04;100966.72;;;6.27;100.00
47670;BME280;33408;52.062;11.722;2023-11-21T07:56:30;100974.44;;;6.27;100.00
47670;BME280;33408;52.062;11.722;2023-11-21T07:58:57;100971.88;;;6.27;100.00
47670;BME280;33408;52.062;11.722;2023-11-21T08:01:24;100974.41;;;6.22;100.00
47670;BME280;33408;52.062;11.722;2023-11-21T08:03:50;100970.09;;;6.12;100.00
47670;BME280;33408;52.062;11.722;2023-11-21T08:06:18;100982.06;;;6.05;100.00
47670;BME280;33408;52.062;11.722;2023-11-21T08:08:46;100985.53;;;6.13;100.00
47670;BME280;33408;52.062;11.722;2023-11-21T08:11:12;100993.25;;;6.09;100.00
47670;BME280;33408;52.062;11.722;2023-11-21T08:13:39;101000.97;;;6.07;100.00
47670;BME280;33408;52.062;11.722;2023-11-21T08:16:07;101006.13;;;6.07;100.00
47670;BME280;33408;52.062;11.722;2023-11-21T08:18:34;101009.53;;;6.08;100.00
47670;BME280;33408;52.062;11.722;2023-11-21T08:21:00;101013.84;;;6.06;100.00
47670;BME280;33408;52.062;11.722;2023-11-21T08:23:28;101012.19;;;6.26;100.00
47670;BME280;33408;52.062;11.722;2023-11-21T08:25:56;101013.91;;;6.26;100.00
47670;BME280;33408;52.062;11.722;2023-11-21T08:28:23;101007.88;;;6.22;100.00
47670;BME280;33408;52.062;11.722;2023-11-21T08:30:51;101013.91;;;6.26;100.00
47670;BME280;33408;52.062;11.722;2023-11-21T08:33:18;101015.63;;;6.25;100.00
47670;BME280;33408;52.062;11.722;2023-11-21T08:35:44;101021.63;;;6.24;100.00
47670;BME280;33408;52.062;11.722;2023-11-21T08:38:12;101023.38;;;6.28;100.00
47670;BME280;33408;52.062;11.722;2023-11-21T08:40:38;101026.81;;;6.32;100.00
47670;BME280;33408;52.062;11.722;2023-11-21T08:43:07;101031.09;;;6.33;100.00
47670;BME280;33408;52.062;11.722;2023-11-21T08:45:33;101031.13;;;6.34;100.00
47670;BME280;33408;52.062;11.722;2023-11-21T08:48:00;101031.09;;;6.39;100.00
47670;BME280;33408;52.062;11.722;2023-11-21T08:50:27;101038.81;;;6.37;100.00
47670;BME280;33408;52.062;11.722;2023-11-21T08:52:53;101041.38;;;6.24;100.00
47670;BME280;33408;52.062;11.722;2023-11-21T08:55:21;101048.19;;;6.17;100.00
47670;BME280;33408;52.062;11.722;2023-11-21T08:57:47;101042.19;;;6.18;100.00
47670;BME280;33408;52.062;11.722;2023-11-21T09:00:16;101044.72;;;6.06;100.00
47670;BME280;33408;52.062;11.722;2023-11-21T09:02:44;101050.78;;;6.20;100.00
47670;BME280;33408;52.062;11.722;2023-11-21T09:05:12;101053.31;;;6.11;100.00
47670;BME280;33408;52.062;11.722;2023-11-21T09:07:41;101054.19;;;6.14;100.00
47670;BME280;33408;52.062;11.722;2023-11-21T09:10:08;101059.28;;;6.05;100.00
47670;BME280;33408;52.062;11.722;2023-11-21T09:12:36;101066.97;;;6.03;100.00
47670;BME280;33408;52.062;11.722;2023-11-21T09:15:04;101072.09;;;6.00;100.00
47670;BME280;33408;52.062;11.722;2023-11-21T09:17:33;101073.75;;;5.92;100.00
47670;BME280;33408;52.062;11.722;2023-11-21T09:20:00;101074.72;;;6.08;100.00
47670;BME280;33408;52.062;11.722;2023-11-21T09:22:29;101079.84;;;6.03;100.00
47670;BME280;33408;52.062;11.722;2023-11-21T09:24:56;101079.88;;;6.08;100.00
47670;BME280;33408;52.062;11.722;2023-11-21T09:27:25;101085.00;;;6.02;100.00
47670;BME280;33408;52.062;11.722;2023-11-21T09:29:52;101094.53;;;6.17;100.00
47670;BME280;33408;52.062;11.722;2023-11-21T09:32:19;101095.38;;;6.17;100.00
47670;BME280;33408;52.062;11.722;2023-11-21T09:34:48;101095.41;;;6.20;100.00
47670;BME280;33408;52.062;11.722;2023-11-21T09:37:14;101095.34;;;6.13;100.00
47670;BME280;33408;52.062;11.722;2023-11-21T09:39:41;101090.25;;;6.22;100.00
47670;BME280;33408;52.062;11.722;2023-11-21T09:42:10;101091.97;;;6.26;100.00
47670;BME280;33408;52.062;11.722;2023-11-21T09:44:45;101103.16;;;6.24;100.00
47670;BME280;33408;52.062;11.722;2023-11-21T09:47:15;101101.44;;;6.26;100.00
47670;BME280;33408;52.062;11.722;2023-11-21T09:49:48;101102.34;;;6.35;100.00
47670;BME280;33408;52.062;11.722;2023-11-21T09:52:22;101103.22;;;6.36;100.00
47670;BME280;33408;52.062;11.722;2023-11-21T09:54:50;101108.28;;;6.22;100.00
47670;BME280;33408;52.062;11.722;2023-11-21T09:57:19;101119.38;;;6.09;100.00
47670;BME280;33408;52.062;11.722;2023-11-21T09:59:46;101126.25;;;6.13;100.00
47670;BME280;33408;52.062;11.722;2023-11-21T10:02:16;101120.22;;;6.08;100.00
47670;BME280;33408;52.062;11.722;2023-11-21T10:04:44;101120.16;;;6.00;100.00
47670;BME280;33408;52.062;11.722;2023-11-21T10:07:13;101114.97;;;5.97;100.00
47670;BME280;33408;52.062;11.722;2023-11-21T10:09:44;101121.88;;;5.99;100.00
47670;BME280;33408;52.062;11.722;2023-11-21T10:12:11;101129.66;;;6.13;100.00
47670;BME280;33408;52.062;11.722;2023-11-21T10:14:41;101127.97;;;6.12;100.00
47670;BME280;33408;52.062;11.722;2023-11-21T10:17:10;101131.38;;;6.10;100.00
47670;BME280;33408;52.062;11.722;2023-11-21T10:19:39;101131.41;;;6.14;100.00
47670;BME280;33408;52.062;11.722;2023-11-21T10:22:06;101124.53;;;6.12;100.00
47670;BME280;33408;52.062;11.722;2023-11-21T10:24:36;101122.88;;;6.20;100.00
47670;BME280;33408;52.062;11.722;2023-11-21T10:27:04;101124.50;;;6.06;100.00
47670;BME280;33408;52.062;11.722;2023-11-21T10:29:30;101131.34;;;6.08;100.00
47670;BME280;33408;52.062;11.722;2023-11-21T10:32:01;101132.25;;;6.09;100.00
47670;BME280;33408;52.062;11.722;2023-11-21T10:34:28;101134.03;;;6.24;100.00
47670;BME280;33408;52.062;11.722;2023-11-21T10:36:55;101129.78;;;6.30;100.00
47670;BME280;33408;52.062;11.722;2023-11-21T10:39:24;101133.28;;;6.43;100.00
47670;BME280;33408;52.062;11.722;2023-11-21T10:41:55;101143.59;;;6.43;100.00
47670;BME280;33408;52.062;11.722;2023-11-21T10:44:21;101139.34;;;6.54;100.00
47670;BME280;33408;52.062;11.722;2023-11-21T10:46:50;101138.44;;;6.43;100.00
47670;BME280;33408;52.062;11.722;2023-11-21T10:49:21;101146.13;;;6.40;100.00
47670;BME280;33408;52.062;11.722;2023-11-21T10:51:50;101143.56;;;6.42;100.00
47670;BME280;33408;52.062;11.722;2023-11-21T10:54:21;101152.97;;;6.35;100.00
47670;BME280;33408;52.062;11.722;2023-11-21T10:56:49;101153.81;;;6.31;100.00
47670;BME280;33408;52.062;11.722;2023-11-21T10:59:18;101152.91;;;6.23;100.00
47670;BME280;33408;52.062;11.722;2023-11-21T11:01:46;101154.56;;;6.16;100.00
47670;BME280;33408;52.062;11.722;2023-11-21T11:04:18;101160.56;;;6.16;100.00
47670;BME280;33408;52.062;11.722;2023-11-21T11:06:49;101157.09;;;6.10;100.00
47670;BME280;33408;52.062;11.722;2023-11-21T11:09:17;101167.41;;;6.11;100.00
47670;BME280;33408;52.062;11.722;2023-11-21T11:11:44;101169.13;;;6.09;100.00
47670;BME280;33408;52.062;11.722;2023-11-21T11:14:12;101173.41;;;6.06;100.00
47670;BME280;33408;52.062;11.722;2023-11-21T11:16:40;101176.81;;;6.06;100.00
47670;BME280;33408;52.062;11.722;2023-11-21T11:19:08;101176.75;;;5.98;100.00
47670;BME280;33408;52.062;11.722;2023-11-21T11:21:45;101174.22;;;6.01;100.00
47670;BME280;33408;52.062;11.722;2023-11-21T11:24:36;101181.06;;;6.01;100.00
47670;BME280;33408;52.062;11.722;2023-11-21T11:27:19;101178.47;;;5.98;100.00
47670;BME280;33408;52.062;11.722;2023-11-21T11:29:58;101180.13;;;5.91;100.00
47670;BME280;33408;52.062;11.722;2023-11-21T11:32:38;101187.84;;;5.93;100.00
47670;BME280;33408;52.062;11.722;2023-11-21T11:35:12;101194.69;;;5.94;100.00
47670;BME280;33408;52.062;11.722;2023-11-21T11:37:42;101194.66;;;5.86;100.00
47670;BME280;33408;52.062;11.722;2023-11-21T11:40:11;101195.53;;;5.90;100.00
47670;BME280;33408;52.062;11.722;2023-11-21T11:42:37;101192.94;;;5.85;100.00
47670;BME280;33408;52.062;11.722;2023-11-21T11:45:17;101205.81;;;5.87;100.00
47670;BME280;33408;52.062;11.722;2023-11-21T11:47:47;101206.69;;;5.92;100.00
47670;BME280;33408;52.062;11.722;2023-11-21T11:50:14;101207.53;;;5.92;100.00
47670;BME280;33408;52.062;11.722;2023-11-21T11:52:43;101210.13;;;5.94;100.00
47670;BME280;33408;52.062;11.722;2023-11-21T11:55:11;101199.84;;;5.95;100.00
47670;BME280;33408;52.062;11.722;2023-11-21T11:57:42;101199.75;;;5.81;100.00
47670;BME280;33408;52.062;11.722;2023-11-21T12:00:16;101204.09;;;5.90;100.00
47670;BME280;33408;52.062;11.722;2023-11-21T12:02:47;101197.25;;;5.92;100.00
47670;BME280;33408;52.062;11.722;2023-11-21T12:05:15;101210.97;;;5.90;100.00
47670;BME280;33408;52.062;11.722;2023-11-21T12:07:48;101208.38;;;5.87;100.00
47670;BME280;33408;52.062;11.722;2023-11-21T12:10:15;101216.97;;;5.89;100.00
47670;BME280;33408;52.062;11.722;2023-11-21T12:12:44;101211.03;;;5.94;100.00
47670;BME280;33408;52.062;11.722;2023-11-21T12:15:12;101217.81;;;5.89;100.00
47670;BME280;33408;52.062;11.722;2023-11-21T12:17:39;101219.59;;;5.95;100.00
47670;BME280;33408;52.062;11.722;2023-11-21T12:20:09;101223.91;;;5.96;100.00
47670;BME280;33408;52.062;11.722;2023-11-21T12:22:42;101233.28;;;5.92;100.00
47670;BME280;33408;52.062;11.722;2023-11-21T12:25:09;101234.94;;;5.84;100.00
47670;BME280;33408;52.062;11.722;2023-11-21T12:27:40;101231.44;;;5.76;100.00
47670;BME280;33408;52.062;11.722;2023-11-21T12:30:07;101239.16;;;5.77;100.00
47670;BME280;33408;52.062;11.722;2023-11-21T12:32:39;101237.50;;;5.82;100.00
47670;BME280;33408;52.062;11.722;2023-11-21T12:35:06;101246.81;;;5.71;100.00
47670;BME280;33408;52.062;11.722;2023-11-21T12:37:34;101248.56;;;5.72;100.00
47670;BME280;33408;52.062;11.722;2023-11-21T12:40:01;101256.28;;;5.75;100.00
47670;BME280;33408;52.062;11.722;2023-11-21T12:42:28;101259.72;;;5.76;100.00
47670;BME280;33408;52.062;11.722;2023-11-21T12:45:09;101261.41;;;5.72;100.00